Terminal Aerodrome Forecast
Issued by NWS

Current Version | Previous Version | Text Only | Print | Product List | Glossary Off
Versions: 1 2 3 4 5 6 7 8 9 10 11 12 13

118
FTUS44 KSJT 031140
TAFBBD
TAF
KBBD 031140Z 0312/0412 06010KT 4SM -RA BR OVC007
     FM031900 04008KT 4SM -DZ BR OVC008
     FM040000 03008KT 5SM -RA BR OVC007
     FM040700 02007KT 5SM -DZ BR OVC006
      AMD NOT SKED=

USA.gov is the U.S. government's official web portal to all federal, state and local government web resources and services.